sensor_id;sensor_type;location;lat;lon;timestamp;P1;durP1;ratioP1;P2;durP2;ratioP2
84713;SDS011;74938;42.658;23.248;2024-01-10T00:01:15;13.20;;;6.30;;
84713;SDS011;74938;42.658;23.248;2024-01-10T00:03:41;10.93;;;6.25;;
84713;SDS011;74938;42.658;23.248;2024-01-10T00:06:06;12.55;;;6.00;;
84713;SDS011;74938;42.658;23.248;2024-01-10T00:08:31;11.98;;;6.93;;
84713;SDS011;74938;42.658;23.248;2024-01-10T00:10:57;17.10;;;8.13;;
84713;SDS011;74938;42.658;23.248;2024-01-10T00:13:22;6.07;;;3.28;;
84713;SDS011;74938;42.658;23.248;2024-01-10T00:15:48;6.43;;;3.25;;
84713;SDS011;74938;42.658;23.248;2024-01-10T00:18:14;5.28;;;2.75;;
84713;SDS011;74938;42.658;23.248;2024-01-10T00:20:39;6.68;;;2.75;;
84713;SDS011;74938;42.658;23.248;2024-01-10T00:23:05;5.15;;;3.38;;
84713;SDS011;74938;42.658;23.248;2024-01-10T00:25:31;7.68;;;3.63;;
84713;SDS011;74938;42.658;23.248;2024-01-10T00:27:57;19.17;;;8.27;;
84713;SDS011;74938;42.658;23.248;2024-01-10T00:30:23;9.13;;;4.68;;
84713;SDS011;74938;42.658;23.248;2024-01-10T00:32:48;39.88;;;16.38;;
84713;SDS011;74938;42.658;23.248;2024-01-10T00:35:13;37.38;;;13.27;;
84713;SDS011;74938;42.658;23.248;2024-01-10T00:37:39;25.20;;;10.93;;
84713;SDS011;74938;42.658;23.248;2024-01-10T00:40:04;15.10;;;4.88;;
84713;SDS011;74938;42.658;23.248;2024-01-10T00:42:30;16.65;;;7.18;;
84713;SDS011;74938;42.658;23.248;2024-01-10T00:44:56;9.93;;;4.85;;
84713;SDS011;74938;42.658;23.248;2024-01-10T00:47:21;42.58;;;16.75;;
84713;SDS011;74938;42.658;23.248;2024-01-10T00:49:46;22.05;;;10.13;;
84713;SDS011;74938;42.658;23.248;2024-01-10T00:52:12;7.10;;;3.95;;
84713;SDS011;74938;42.658;23.248;2024-01-10T00:54:37;13.48;;;5.72;;
84713;SDS011;74938;42.658;23.248;2024-01-10T00:57:03;9.90;;;3.78;;
84713;SDS011;74938;42.658;23.248;2024-01-10T00:59:28;5.10;;;3.28;;
84713;SDS011;74938;42.658;23.248;2024-01-10T01:01:54;9.07;;;3.45;;
84713;SDS011;74938;42.658;23.248;2024-01-10T01:04:19;8.93;;;3.55;;
84713;SDS011;74938;42.658;23.248;2024-01-10T01:06:44;3.13;;;2.17;;
84713;SDS011;74938;42.658;23.248;2024-01-10T01:09:10;4.03;;;2.50;;
84713;SDS011;74938;42.658;23.248;2024-01-10T01:11:37;5.38;;;2.75;;
84713;SDS011;74938;42.658;23.248;2024-01-10T01:14:02;3.75;;;2.58;;
84713;SDS011;74938;42.658;23.248;2024-01-10T01:16:28;5.65;;;2.80;;
84713;SDS011;74938;42.658;23.248;2024-01-10T01:18:53;5.10;;;2.38;;
84713;SDS011;74938;42.658;23.248;2024-01-10T01:21:18;6.10;;;3.17;;
84713;SDS011;74938;42.658;23.248;2024-01-10T01:23:44;2.25;;;1.92;;
84713;SDS011;74938;42.658;23.248;2024-01-10T01:26:09;5.07;;;2.70;;
84713;SDS011;74938;42.658;23.248;2024-01-10T01:28:35;4.47;;;2.47;;
84713;SDS011;74938;42.658;23.248;2024-01-10T01:31:00;5.00;;;2.72;;
84713;SDS011;74938;42.658;23.248;2024-01-10T01:33:25;5.32;;;2.75;;
84713;SDS011;74938;42.658;23.248;2024-01-10T01:35:51;5.15;;;2.47;;
84713;SDS011;74938;42.658;23.248;2024-01-10T01:38:18;6.80;;;2.78;;
84713;SDS011;74938;42.658;23.248;2024-01-10T01:40:43;0.70;;;0.57;;
84713;SDS011;74938;42.658;23.248;2024-01-10T01:43:22;9.80;;;1.63;;
84713;SDS011;74938;42.658;23.248;2024-01-10T01:45:50;3.83;;;2.45;;
84713;SDS011;74938;42.658;23.248;2024-01-10T01:48:18;7.15;;;2.55;;
84713;SDS011;74938;42.658;23.248;2024-01-10T01:50:45;3.88;;;2.03;;
84713;SDS011;74938;42.658;23.248;2024-01-10T01:53:15;0.68;;;0.68;;
84713;SDS011;74938;42.658;23.248;2024-01-10T01:55:44;5.93;;;2.47;;
84713;SDS011;74938;42.658;23.248;2024-01-10T01:58:10;6.22;;;3.60;;
84713;SDS011;74938;42.658;23.248;2024-01-10T02:00:36;7.30;;;4.13;;
84713;SDS011;74938;42.658;23.248;2024-01-10T02:03:02;8.85;;;3.50;;
84713;SDS011;74938;42.658;23.248;2024-01-10T02:05:29;6.78;;;3.65;;
84713;SDS011;74938;42.658;23.248;2024-01-10T02:07:55;3.53;;;2.20;;
84713;SDS011;74938;42.658;23.248;2024-01-10T02:10:20;4.05;;;2.13;;
84713;SDS011;74938;42.658;23.248;2024-01-10T02:12:46;3.17;;;1.95;;
84713;SDS011;74938;42.658;23.248;2024-01-10T02:15:12;5.07;;;2.33;;
84713;SDS011;74938;42.658;23.248;2024-01-10T02:17:39;6.78;;;3.25;;
84713;SDS011;74938;42.658;23.248;2024-01-10T02:20:11;28.27;;;11.90;;
84713;SDS011;74938;42.658;23.248;2024-01-10T02:22:38;11.30;;;4.25;;
84713;SDS011;74938;42.658;23.248;2024-01-10T02:25:07;8.15;;;4.50;;
84713;SDS011;74938;42.658;23.248;2024-01-10T02:27:34;4.00;;;2.55;;
84713;SDS011;74938;42.658;23.248;2024-01-10T02:30:02;7.07;;;3.83;;
84713;SDS011;74938;42.658;23.248;2024-01-10T02:32:28;1.02;;;0.93;;
84713;SDS011;74938;42.658;23.248;2024-01-10T02:34:54;2.00;;;1.67;;
84713;SDS011;74938;42.658;23.248;2024-01-10T02:37:19;4.15;;;2.65;;
84713;SDS011;74938;42.658;23.248;2024-01-10T02:39:45;2.95;;;1.85;;
84713;SDS011;74938;42.658;23.248;2024-01-10T02:42:10;2.63;;;1.13;;
84713;SDS011;74938;42.658;23.248;2024-01-10T02:44:36;3.08;;;1.55;;
84713;SDS011;74938;42.658;23.248;2024-01-10T02:47:01;3.10;;;1.80;;
84713;SDS011;74938;42.658;23.248;2024-01-10T02:49:27;2.38;;;1.33;;
84713;SDS011;74938;42.658;23.248;2024-01-10T02:51:52;2.45;;;1.70;;
84713;SDS011;74938;42.658;23.248;2024-01-10T02:54:17;4.63;;;2.17;;
84713;SDS011;74938;42.658;23.248;2024-01-10T02:56:43;2.20;;;1.63;;
84713;SDS011;74938;42.658;23.248;2024-01-10T02:59:08;8.13;;;3.38;;
84713;SDS011;74938;42.658;23.248;2024-01-10T03:01:34;6.35;;;2.70;;
84713;SDS011;74938;42.658;23.248;2024-01-10T03:03:59;4.13;;;2.15;;
84713;SDS011;74938;42.658;23.248;2024-01-10T03:06:24;5.15;;;3.13;;
84713;SDS011;74938;42.658;23.248;2024-01-10T03:08:50;11.13;;;5.00;;
84713;SDS011;74938;42.658;23.248;2024-01-10T03:11:16;8.88;;;3.33;;
84713;SDS011;74938;42.658;23.248;2024-01-10T03:13:43;1.77;;;1.38;;
84713;SDS011;74938;42.658;23.248;2024-01-10T03:16:10;2.08;;;1.23;;
84713;SDS011;74938;42.658;23.248;2024-01-10T03:18:36;3.03;;;1.55;;
84713;SDS011;74938;42.658;23.248;2024-01-10T03:21:01;2.75;;;1.75;;
84713;SDS011;74938;42.658;23.248;2024-01-10T03:23:27;2.42;;;1.60;;
84713;SDS011;74938;42.658;23.248;2024-01-10T03:25:52;2.28;;;1.77;;
84713;SDS011;74938;42.658;23.248;2024-01-10T03:28:18;3.90;;;2.05;;
84713;SDS011;74938;42.658;23.248;2024-01-10T03:30:43;4.88;;;2.50;;
84713;SDS011;74938;42.658;23.248;2024-01-10T03:33:09;8.48;;;4.40;;
84713;SDS011;74938;42.658;23.248;2024-01-10T03:35:35;10.50;;;6.38;;
84713;SDS011;74938;42.658;23.248;2024-01-10T03:38:00;21.20;;;10.88;;
84713;SDS011;74938;42.658;23.248;2024-01-10T03:40:26;15.23;;;7.68;;
84713;SDS011;74938;42.658;23.248;2024-01-10T03:42:51;15.50;;;7.72;;
84713;SDS011;74938;42.658;23.248;2024-01-10T03:45:17;11.18;;;6.57;;
84713;SDS011;74938;42.658;23.248;2024-01-10T03:47:45;8.93;;;3.92;;
84713;SDS011;74938;42.658;23.248;2024-01-10T03:50:15;16.25;;;9.35;;
84713;SDS011;74938;42.658;23.248;2024-01-10T03:52:41;10.63;;;5.65;;
84713;SDS011;74938;42.658;23.248;2024-01-10T03:55:07;12.65;;;5.63;;
84713;SDS011;74938;42.658;23.248;2024-01-10T03:57:34;11.15;;;4.55;;
84713;SDS011;74938;42.658;23.248;2024-01-10T03:59:59;14.80;;;6.28;;
84713;SDS011;74938;42.658;23.248;2024-01-10T04:02:25;5.47;;;4.18;;
84713;SDS011;74938;42.658;23.248;2024-01-10T04:04:51;4.88;;;2.67;;
84713;SDS011;74938;42.658;23.248;2024-01-10T04:07:16;7.30;;;3.28;;
84713;SDS011;74938;42.658;23.248;2024-01-10T04:09:42;4.20;;;2.15;;
84713;SDS011;74938;42.658;23.248;2024-01-10T04:12:07;3.72;;;2.05;;
84713;SDS011;74938;42.658;23.248;2024-01-10T04:14:32;3.50;;;2.05;;
84713;SDS011;74938;42.658;23.248;2024-01-10T04:16:58;6.18;;;3.08;;
84713;SDS011;74938;42.658;23.248;2024-01-10T04:19:23;3.53;;;1.80;;
84713;SDS011;74938;42.658;23.248;2024-01-10T04:21:49;3.90;;;2.50;;
84713;SDS011;74938;42.658;23.248;2024-01-10T04:24:15;3.28;;;1.75;;
84713;SDS011;74938;42.658;23.248;2024-01-10T04:26:40;3.70;;;1.77;;
84713;SDS011;74938;42.658;23.248;2024-01-10T04:29:05;3.42;;;2.58;;
84713;SDS011;74938;42.658;23.248;2024-01-10T04:31:31;2.35;;;1.60;;
84713;SDS011;74938;42.658;23.248;2024-01-10T04:33:56;5.68;;;1.73;;
84713;SDS011;74938;42.658;23.248;2024-01-10T04:36:22;1.27;;;1.17;;
84713;SDS011;74938;42.658;23.248;2024-01-10T04:38:47;3.92;;;2.15;;
84713;SDS011;74938;42.658;23.248;2024-01-10T04:41:12;3.83;;;2.03;;
84713;SDS011;74938;42.658;23.248;2024-01-10T04:43:38;3.75;;;2.13;;
84713;SDS011;74938;42.658;23.248;2024-01-10T04:46:06;5.05;;;2.40;;
84713;SDS011;74938;42.658;23.248;2024-01-10T04:48:32;5.85;;;1.95;;
84713;SDS011;74938;42.658;23.248;2024-01-10T04:50:57;2.55;;;1.88;;
84713;SDS011;74938;42.658;23.248;2024-01-10T04:53:22;4.82;;;2.03;;
84713;SDS011;74938;42.658;23.248;2024-01-10T04:55:48;5.15;;;1.90;;
84713;SDS011;74938;42.658;23.248;2024-01-10T04:58:13;3.85;;;2.08;;
84713;SDS011;74938;42.658;23.248;2024-01-10T05:00:38;3.92;;;1.98;;
84713;SDS011;74938;42.658;23.248;2024-01-10T05:03:04;5.82;;;2.70;;
84713;SDS011;74938;42.658;23.248;2024-01-10T05:05:29;6.47;;;2.80;;
84713;SDS011;74938;42.658;23.248;2024-01-10T05:07:55;8.60;;;2.72;;
84713;SDS011;74938;42.658;23.248;2024-01-10T05:10:20;8.45;;;5.32;;
84713;SDS011;74938;42.658;23.248;2024-01-10T05:12:46;8.90;;;4.88;;
84713;SDS011;74938;42.658;23.248;2024-01-10T05:15:11;6.30;;;3.65;;
84713;SDS011;74938;42.658;23.248;2024-01-10T05:17:36;10.52;;;4.97;;
84713;SDS011;74938;42.658;23.248;2024-01-10T05:20:02;9.73;;;4.95;;
84713;SDS011;74938;42.658;23.248;2024-01-10T05:22:27;9.07;;;5.28;;
84713;SDS011;74938;42.658;23.248;2024-01-10T05:24:53;7.20;;;3.75;;
84713;SDS011;74938;42.658;23.248;2024-01-10T05:27:18;9.18;;;3.83;;
84713;SDS011;74938;42.658;23.248;2024-01-10T05:29:44;10.70;;;2.67;;
84713;SDS011;74938;42.658;23.248;2024-01-10T05:32:09;5.13;;;2.88;;
84713;SDS011;74938;42.658;23.248;2024-01-10T05:34:34;6.35;;;2.65;;
84713;SDS011;74938;42.658;23.248;2024-01-10T05:37:00;6.30;;;2.97;;
84713;SDS011;74938;42.658;23.248;2024-01-10T05:39:25;4.57;;;2.30;;
84713;SDS011;74938;42.658;23.248;2024-01-10T05:41:50;8.68;;;3.50;;
84713;SDS011;74938;42.658;23.248;2024-01-10T05:44:16;6.75;;;3.50;;
84713;SDS011;74938;42.658;23.248;2024-01-10T05:46:41;7.97;;;3.50;;
84713;SDS011;74938;42.658;23.248;2024-01-10T05:49:07;6.57;;;3.97;;
84713;SDS011;74938;42.658;23.248;2024-01-10T05:51:33;10.35;;;4.00;;
84713;SDS011;74938;42.658;23.248;2024-01-10T05:53:58;6.63;;;3.85;;
84713;SDS011;74938;42.658;23.248;2024-01-10T05:56:24;10.80;;;3.33;;
84713;SDS011;74938;42.658;23.248;2024-01-10T05:58:49;4.00;;;2.50;;
84713;SDS011;74938;42.658;23.248;2024-01-10T06:01:16;8.65;;;2.70;;
84713;SDS011;74938;42.658;23.248;2024-01-10T06:03:42;6.60;;;2.97;;
84713;SDS011;74938;42.658;23.248;2024-01-10T06:06:07;5.35;;;3.25;;
84713;SDS011;74938;42.658;23.248;2024-01-10T06:08:34;6.65;;;2.92;;
84713;SDS011;74938;42.658;23.248;2024-01-10T06:11:02;7.57;;;2.95;;
84713;SDS011;74938;42.658;23.248;2024-01-10T06:13:28;5.68;;;3.08;;
84713;SDS011;74938;42.658;23.248;2024-01-10T06:15:53;6.88;;;3.92;;
84713;SDS011;74938;42.658;23.248;2024-01-10T06:18:19;9.80;;;2.83;;
84713;SDS011;74938;42.658;23.248;2024-01-10T06:20:44;5.13;;;2.97;;
84713;SDS011;74938;42.658;23.248;2024-01-10T06:23:09;3.70;;;1.65;;
84713;SDS011;74938;42.658;23.248;2024-01-10T06:25:35;6.25;;;2.28;;
84713;SDS011;74938;42.658;23.248;2024-01-10T06:28:00;5.45;;;2.22;;
84713;SDS011;74938;42.658;23.248;2024-01-10T06:30:26;6.15;;;2.55;;
84713;SDS011;74938;42.658;23.248;2024-01-10T06:32:51;4.93;;;2.65;;
84713;SDS011;74938;42.658;23.248;2024-01-10T06:35:18;3.97;;;1.95;;
84713;SDS011;74938;42.658;23.248;2024-01-10T06:37:45;3.03;;;1.77;;
84713;SDS011;74938;42.658;23.248;2024-01-10T06:40:11;8.00;;;3.22;;
84713;SDS011;74938;42.658;23.248;2024-01-10T06:42:37;7.72;;;2.45;;
84713;SDS011;74938;42.658;23.248;2024-01-10T06:45:04;6.28;;;3.25;;
84713;SDS011;74938;42.658;23.248;2024-01-10T06:47:32;4.75;;;2.42;;
84713;SDS011;74938;42.658;23.248;2024-01-10T06:49:58;4.07;;;2.50;;
84713;SDS011;74938;42.658;23.248;2024-01-10T06:52:24;7.20;;;3.28;;
84713;SDS011;74938;42.658;23.248;2024-01-10T06:54:49;9.07;;;4.78;;
84713;SDS011;74938;42.658;23.248;2024-01-10T06:57:14;8.20;;;4.88;;
84713;SDS011;74938;42.658;23.248;2024-01-10T06:59:40;8.90;;;5.05;;
84713;SDS011;74938;42.658;23.248;2024-01-10T07:02:05;8.80;;;4.38;;
84713;SDS011;74938;42.658;23.248;2024-01-10T07:04:31;18.35;;;6.40;;
84713;SDS011;74938;42.658;23.248;2024-01-10T07:06:57;13.27;;;6.55;;
84713;SDS011;74938;42.658;23.248;2024-01-10T07:09:22;8.38;;;4.68;;
84713;SDS011;74938;42.658;23.248;2024-01-10T07:11:48;11.90;;;5.00;;
84713;SDS011;74938;42.658;23.248;2024-01-10T07:14:14;10.68;;;4.82;;
84713;SDS011;74938;42.658;23.248;2024-01-10T07:16:41;8.85;;;5.05;;
84713;SDS011;74938;42.658;23.248;2024-01-10T07:19:10;14.50;;;6.78;;
84713;SDS011;74938;42.658;23.248;2024-01-10T07:21:42;9.82;;;5.32;;
84713;SDS011;74938;42.658;23.248;2024-01-10T07:24:08;11.52;;;4.70;;
84713;SDS011;74938;42.658;23.248;2024-01-10T07:26:34;8.93;;;4.18;;
84713;SDS011;74938;42.658;23.248;2024-01-10T07:29:01;10.68;;;4.97;;
84713;SDS011;74938;42.658;23.248;2024-01-10T07:31:27;16.98;;;7.00;;
84713;SDS011;74938;42.658;23.248;2024-01-10T07:33:56;10.35;;;6.60;;
84713;SDS011;74938;42.658;23.248;2024-01-10T07:36:25;12.45;;;5.45;;
84713;SDS011;74938;42.658;23.248;2024-01-10T07:38:58;8.20;;;3.92;;
84713;SDS011;74938;42.658;23.248;2024-01-10T07:41:23;7.78;;;3.28;;
84713;SDS011;74938;42.658;23.248;2024-01-10T07:43:49;7.53;;;3.88;;
84713;SDS011;74938;42.658;23.248;2024-01-10T07:46:14;8.95;;;3.30;;
84713;SDS011;74938;42.658;23.248;2024-01-10T07:48:40;5.53;;;2.58;;
84713;SDS011;74938;42.658;23.248;2024-01-10T07:51:06;8.20;;;2.83;;
84713;SDS011;74938;42.658;23.248;2024-01-10T07:53:31;7.15;;;3.03;;
84713;SDS011;74938;42.658;23.248;2024-01-10T07:55:57;7.05;;;2.92;;
84713;SDS011;74938;42.658;23.248;2024-01-10T07:58:22;6.50;;;2.53;;
84713;SDS011;74938;42.658;23.248;2024-01-10T08:00:48;5.15;;;2.50;;
84713;SDS011;74938;42.658;23.248;2024-01-10T08:03:13;4.28;;;2.05;;
84713;SDS011;74938;42.658;23.248;2024-01-10T08:05:39;4.55;;;2.28;;
84713;SDS011;74938;42.658;23.248;2024-01-10T08:08:04;5.25;;;2.25;;
84713;SDS011;74938;42.658;23.248;2024-01-10T08:10:30;3.92;;;2.33;;
84713;SDS011;74938;42.658;23.248;2024-01-10T08:12:55;3.95;;;2.20;;
84713;SDS011;74938;42.658;23.248;2024-01-10T08:15:21;3.03;;;1.95;;
84713;SDS011;74938;42.658;23.248;2024-01-10T08:17:47;3.80;;;1.98;;
84713;SDS011;74938;42.658;23.248;2024-01-10T08:20:13;6.20;;;2.10;;
84713;SDS011;74938;42.658;23.248;2024-01-10T08:22:40;7.95;;;3.03;;
84713;SDS011;74938;42.658;23.248;2024-01-10T08:25:06;6.32;;;2.58;;
84713;SDS011;74938;42.658;23.248;2024-01-10T08:27:32;7.55;;;3.00;;
84713;SDS011;74938;42.658;23.248;2024-01-10T08:29:58;7.65;;;3.40;;
84713;SDS011;74938;42.658;23.248;2024-01-10T08:32:24;7.20;;;3.38;;
84713;SDS011;74938;42.658;23.248;2024-01-10T08:34:49;7.53;;;3.72;;
84713;SDS011;74938;42.658;23.248;2024-01-10T08:37:15;7.25;;;3.67;;
84713;SDS011;74938;42.658;23.248;2024-01-10T08:39:42;14.35;;;5.28;;
84713;SDS011;74938;42.658;23.248;2024-01-10T08:42:09;6.25;;;3.15;;
84713;SDS011;74938;42.658;23.248;2024-01-10T08:44:34;6.90;;;2.90;;
84713;SDS011;74938;42.658;23.248;2024-01-10T08:47:00;11.23;;;4.57;;
84713;SDS011;74938;42.658;23.248;2024-01-10T08:49:25;11.45;;;4.40;;
84713;SDS011;74938;42.658;23.248;2024-01-10T08:51:51;8.77;;;4.57;;
84713;SDS011;74938;42.658;23.248;2024-01-10T08:54:18;7.88;;;4.15;;
84713;SDS011;74938;42.658;23.248;2024-01-10T08:56:45;6.18;;;3.08;;
84713;SDS011;74938;42.658;23.248;2024-01-10T08:59:11;6.78;;;3.22;;
84713;SDS011;74938;42.658;23.248;2024-01-10T09:01:39;8.90;;;3.10;;
84713;SDS011;74938;42.658;23.248;2024-01-10T09:04:05;4.13;;;2.28;;
84713;SDS011;74938;42.658;23.248;2024-01-10T09:06:31;5.97;;;3.00;;
84713;SDS011;74938;42.658;23.248;2024-01-10T09:08:57;4.60;;;2.20;;
84713;SDS011;74938;42.658;23.248;2024-01-10T09:11:23;5.95;;;3.47;;
84713;SDS011;74938;42.658;23.248;2024-01-10T09:13:49;5.97;;;3.15;;
84713;SDS011;74938;42.658;23.248;2024-01-10T09:16:15;5.65;;;2.80;;
84713;SDS011;74938;42.658;23.248;2024-01-10T09:18:41;8.55;;;3.33;;
84713;SDS011;74938;42.658;23.248;2024-01-10T09:21:07;6.03;;;2.83;;
84713;SDS011;74938;42.658;23.248;2024-01-10T09:23:32;8.60;;;3.72;;
84713;SDS011;74938;42.658;23.248;2024-01-10T09:25:58;5.03;;;3.10;;
84713;SDS011;74938;42.658;23.248;2024-01-10T09:28:23;6.03;;;3.15;;
84713;SDS011;74938;42.658;23.248;2024-01-10T09:30:49;5.00;;;2.45;;
84713;SDS011;74938;42.658;23.248;2024-01-10T09:33:14;5.80;;;2.92;;
84713;SDS011;74938;42.658;23.248;2024-01-10T09:35:39;10.40;;;3.83;;
84713;SDS011;74938;42.658;23.248;2024-01-10T09:38:05;6.60;;;3.50;;
84713;SDS011;74938;42.658;23.248;2024-01-10T09:40:30;7.70;;;3.70;;
84713;SDS011;74938;42.658;23.248;2024-01-10T09:42:56;9.98;;;4.20;;
84713;SDS011;74938;42.658;23.248;2024-01-10T09:45:22;29.05;;;9.27;;
84713;SDS011;74938;42.658;23.248;2024-01-10T09:47:54;13.70;;;5.65;;
84713;SDS011;74938;42.658;23.248;2024-01-10T09:50:21;10.40;;;4.30;;
84713;SDS011;74938;42.658;23.248;2024-01-10T09:52:51;7.60;;;3.45;;
84713;SDS011;74938;42.658;23.248;2024-01-10T09:55:19;7.80;;;4.00;;
84713;SDS011;74938;42.658;23.248;2024-01-10T09:57:47;9.10;;;3.50;;
84713;SDS011;74938;42.658;23.248;2024-01-10T10:00:12;6.22;;;3.10;;
84713;SDS011;74938;42.658;23.248;2024-01-10T10:02:40;7.50;;;3.33;;
84713;SDS011;74938;42.658;23.248;2024-01-10T10:05:16;8.75;;;3.80;;
84713;SDS011;74938;42.658;23.248;2024-01-10T10:07:46;9.40;;;3.83;;
84713;SDS011;74938;42.658;23.248;2024-01-10T10:10:12;6.72;;;3.30;;
84713;SDS011;74938;42.658;23.248;2024-01-10T10:12:52;8.88;;;4.07;;
84713;SDS011;74938;42.658;23.248;2024-01-10T10:15:18;8.05;;;4.22;;
84713;SDS011;74938;42.658;23.248;2024-01-10T10:17:49;8.73;;;4.68;;
84713;SDS011;74938;42.658;23.248;2024-01-10T10:20:25;8.57;;;4.10;;
84713;SDS011;74938;42.658;23.248;2024-01-10T10:23:04;8.85;;;4.10;;
84713;SDS011;74938;42.658;23.248;2024-01-10T10:25:45;12.80;;;4.63;;
84713;SDS011;74938;42.658;23.248;2024-01-10T10:28:12;9.93;;;4.45;;
84713;SDS011;74938;42.658;23.248;2024-01-10T10:30:37;9.65;;;4.10;;
84713;SDS011;74938;42.658;23.248;2024-01-10T10:33:03;11.30;;;5.03;;
84713;SDS011;74938;42.658;23.248;2024-01-10T10:35:29;8.95;;;4.47;;
84713;SDS011;74938;42.658;23.248;2024-01-10T10:37:55;12.00;;;5.60;;
84713;SDS011;74938;42.658;23.248;2024-01-10T10:40:22;9.40;;;4.80;;
84713;SDS011;74938;42.658;23.248;2024-01-10T10:42:48;8.07;;;4.88;;
84713;SDS011;74938;42.658;23.248;2024-01-10T10:45:17;12.05;;;4.43;;
84713;SDS011;74938;42.658;23.248;2024-01-10T10:47:44;10.30;;;5.35;;
84713;SDS011;74938;42.658;23.248;2024-01-10T10:50:18;10.35;;;5.07;;
84713;SDS011;74938;42.658;23.248;2024-01-10T10:52:47;8.68;;;4.60;;
84713;SDS011;74938;42.658;23.248;2024-01-10T10:55:17;9.32;;;4.60;;
84713;SDS011;74938;42.658;23.248;2024-01-10T10:57:47;7.32;;;4.50;;
84713;SDS011;74938;42.658;23.248;2024-01-10T11:00:18;9.15;;;4.25;;
84713;SDS011;74938;42.658;23.248;2024-01-10T11:02:45;11.10;;;4.45;;
84713;SDS011;74938;42.658;23.248;2024-01-10T11:05:11;7.55;;;3.88;;
84713;SDS011;74938;42.658;23.248;2024-01-10T11:07:37;9.00;;;3.88;;
84713;SDS011;74938;42.658;23.248;2024-01-10T11:10:04;7.50;;;4.05;;
84713;SDS011;74938;42.658;23.248;2024-01-10T11:12:43;9.77;;;4.60;;
84713;SDS011;74938;42.658;23.248;2024-01-10T11:25:56;13.80;;;5.65;;
84713;SDS011;74938;42.658;23.248;2024-01-10T11:28:24;9.43;;;5.38;;
84713;SDS011;74938;42.658;23.248;2024-01-10T11:30:51;10.05;;;5.82;;
84713;SDS011;74938;42.658;23.248;2024-01-10T11:33:22;15.95;;;6.00;;
84713;SDS011;74938;42.658;23.248;2024-01-10T11:41:34;11.48;;;6.05;;
84713;SDS011;74938;42.658;23.248;2024-01-10T11:46:39;15.07;;;5.95;;
84713;SDS011;74938;42.658;23.248;2024-01-10T11:49:11;13.13;;;6.25;;
84713;SDS011;74938;42.658;23.248;2024-01-10T11:51:53;13.93;;;5.30;;
84713;SDS011;74938;42.658;23.248;2024-01-10T11:54:35;14.93;;;6.20;;
84713;SDS011;74938;42.658;23.248;2024-01-10T11:57:22;21.40;;;9.88;;
84713;SDS011;74938;42.658;23.248;2024-01-10T11:59:53;8.85;;;5.70;;
84713;SDS011;74938;42.658;23.248;2024-01-10T12:02:21;12.68;;;6.15;;
84713;SDS011;74938;42.658;23.248;2024-01-10T12:04:50;11.88;;;5.35;;
84713;SDS011;74938;42.658;23.248;2024-01-10T12:07:16;11.27;;;5.32;;
84713;SDS011;74938;42.658;23.248;2024-01-10T12:09:42;13.18;;;5.60;;
84713;SDS011;74938;42.658;23.248;2024-01-10T12:12:08;16.15;;;7.88;;
84713;SDS011;74938;42.658;23.248;2024-01-10T12:14:36;17.90;;;7.90;;
84713;SDS011;74938;42.658;23.248;2024-01-10T12:17:02;4.47;;;2.40;;
84713;SDS011;74938;42.658;23.248;2024-01-10T12:19:29;10.98;;;5.65;;
84713;SDS011;74938;42.658;23.248;2024-01-10T12:21:54;13.63;;;6.55;;
84713;SDS011;74938;42.658;23.248;2024-01-10T12:24:20;14.85;;;6.68;;
84713;SDS011;74938;42.658;23.248;2024-01-10T12:26:46;14.45;;;7.32;;
84713;SDS011;74938;42.658;23.248;2024-01-10T12:29:13;15.02;;;6.72;;
84713;SDS011;74938;42.658;23.248;2024-01-10T12:31:42;40.75;;;16.58;;
84713;SDS011;74938;42.658;23.248;2024-01-10T12:34:10;18.80;;;7.35;;
84713;SDS011;74938;42.658;23.248;2024-01-10T12:36:36;15.73;;;7.53;;
84713;SDS011;74938;42.658;23.248;2024-01-10T12:39:01;18.70;;;7.78;;
84713;SDS011;74938;42.658;23.248;2024-01-10T12:41:28;13.60;;;6.82;;
84713;SDS011;74938;42.658;23.248;2024-01-10T12:43:53;13.02;;;6.05;;
84713;SDS011;74938;42.658;23.248;2024-01-10T12:46:22;16.38;;;6.65;;
84713;SDS011;74938;42.658;23.248;2024-01-10T12:49:04;14.63;;;7.60;;
84713;SDS011;74938;42.658;23.248;2024-01-10T12:51:32;12.35;;;6.72;;
84713;SDS011;74938;42.658;23.248;2024-01-10T12:53:59;12.85;;;7.55;;
84713;SDS011;74938;42.658;23.248;2024-01-10T12:56:25;18.17;;;8.27;;
84713;SDS011;74938;42.658;23.248;2024-01-10T12:58:51;14.80;;;7.30;;
84713;SDS011;74938;42.658;23.248;2024-01-10T13:01:16;12.43;;;7.25;;
84713;SDS011;74938;42.658;23.248;2024-01-10T13:03:42;13.95;;;6.55;;
84713;SDS011;74938;42.658;23.248;2024-01-10T13:06:08;10.85;;;6.13;;
84713;SDS011;74938;42.658;23.248;2024-01-10T13:08:34;22.80;;;9.40;;
84713;SDS011;74938;42.658;23.248;2024-01-10T13:10:59;13.55;;;7.10;;
84713;SDS011;74938;42.658;23.248;2024-01-10T13:13:25;12.95;;;6.45;;
84713;SDS011;74938;42.658;23.248;2024-01-10T13:15:50;14.63;;;6.25;;
84713;SDS011;74938;42.658;23.248;2024-01-10T13:18:16;11.27;;;5.35;;
84713;SDS011;74938;42.658;23.248;2024-01-10T13:20:42;11.48;;;5.68;;
84713;SDS011;74938;42.658;23.248;2024-01-10T13:23:08;8.85;;;5.57;;
84713;SDS011;74938;42.658;23.248;2024-01-10T13:25:34;10.10;;;5.60;;
84713;SDS011;74938;42.658;23.248;2024-01-10T13:28:00;9.68;;;5.35;;
84713;SDS011;74938;42.658;23.248;2024-01-10T13:30:26;15.48;;;6.93;;
84713;SDS011;74938;42.658;23.248;2024-01-10T13:32:52;16.67;;;7.25;;
84713;SDS011;74938;42.658;23.248;2024-01-10T13:35:17;13.18;;;5.18;;
84713;SDS011;74938;42.658;23.248;2024-01-10T13:37:43;18.60;;;6.78;;
84713;SDS011;74938;42.658;23.248;2024-01-10T13:40:09;14.27;;;7.05;;
84713;SDS011;74938;42.658;23.248;2024-01-10T13:42:37;35.28;;;7.95;;
84713;SDS011;74938;42.658;23.248;2024-01-10T13:45:06;21.42;;;8.68;;
84713;SDS011;74938;42.658;23.248;2024-01-10T13:47:33;24.50;;;7.47;;
84713;SDS011;74938;42.658;23.248;2024-01-10T13:49:59;14.60;;;6.80;;
84713;SDS011;74938;42.658;23.248;2024-01-10T13:52:25;14.90;;;6.97;;
84713;SDS011;74938;42.658;23.248;2024-01-10T13:54:51;16.55;;;8.07;;
84713;SDS011;74938;42.658;23.248;2024-01-10T13:57:17;19.10;;;9.27;;
84713;SDS011;74938;42.658;23.248;2024-01-10T13:59:43;17.33;;;6.20;;
84713;SDS011;74938;42.658;23.248;2024-01-10T14:02:08;13.05;;;5.95;;
84713;SDS011;74938;42.658;23.248;2024-01-10T14:04:35;15.52;;;6.03;;
84713;SDS011;74938;42.658;23.248;2024-01-10T14:07:00;15.30;;;7.13;;
84713;SDS011;74938;42.658;23.248;2024-01-10T14:09:25;11.77;;;6.65;;
84713;SDS011;74938;42.658;23.248;2024-01-10T14:11:51;11.57;;;6.70;;
84713;SDS011;74938;42.658;23.248;2024-01-10T14:14:17;18.73;;;7.90;;
84713;SDS011;74938;42.658;23.248;2024-01-10T14:16:43;10.85;;;6.18;;
84713;SDS011;74938;42.658;23.248;2024-01-10T14:19:08;14.05;;;6.13;;
84713;SDS011;74938;42.658;23.248;2024-01-10T14:21:34;14.25;;;6.10;;
84713;SDS011;74938;42.658;23.248;2024-01-10T14:23:59;10.48;;;5.25;;
84713;SDS011;74938;42.658;23.248;2024-01-10T14:26:25;11.10;;;5.43;;
84713;SDS011;74938;42.658;23.248;2024-01-10T14:28:51;10.98;;;5.15;;
84713;SDS011;74938;42.658;23.248;2024-01-10T14:31:20;12.10;;;5.55;;
84713;SDS011;74938;42.658;23.248;2024-01-10T14:33:46;18.63;;;7.38;;
84713;SDS011;74938;42.658;23.248;2024-01-10T14:36:11;10.77;;;6.30;;
84713;SDS011;74938;42.658;23.248;2024-01-10T14:38:38;13.82;;;6.13;;
84713;SDS011;74938;42.658;23.248;2024-01-10T14:41:04;14.82;;;7.30;;
84713;SDS011;74938;42.658;23.248;2024-01-10T14:43:31;15.50;;;7.32;;